Time;durP1;ratioP1;P1;durP2;ratioP2;P2;SDS_P1;SDS_P2;PMS_P1;PMS_P2;Temp;Humidity;BMP_temperature;BMP_pressure;BME280_temperature;BME280_humidity;BME280_pressure;Samples;Min_cycle;Max_cycle;Signal;HPM_P1;HPM_P2
2022/01/28 00:00:13;;;;;;;1999.90;999.90;;;4.70;99.90;;;;;;5052641;28;20461;-71
2022/01/28 00:02:58;;;;;;;1999.90;999.90;;;4.70;99.90;;;;;;5052666;28;20450;-70
2022/01/28 00:05:25;;;;;;;1999.90;999.90;;;4.60;99.90;;;;;;5052749;28;20840;-70
2022/01/28 00:07:53;;;;;;;1999.90;999.90;;;4.60;99.90;;;;;;5052521;28;20466;-70
2022/01/28 00:10:22;;;;;;;1999.90;999.90;;;4.60;99.90;;;;;;5051866;28;20594;-70
2022/01/28 00:15:46;;;;;;;1999.90;999.90;;;4.70;99.90;;;;;;5052786;28;20798;-70
2022/01/28 00:37:58;;;;;;;1999.90;999.90;;;4.80;99.90;;;;;;5052143;28;20571;-71
2022/01/28 00:40:15;;;;;;;1999.90;999.90;;;4.80;99.90;;;;;;5051851;28;20446;-70
2022/01/28 00:42:42;;;;;;;1999.90;999.90;;;4.80;99.90;;;;;;5052228;28;20500;-69
2022/01/28 00:45:09;;;;;;;1999.90;999.90;;;4.80;99.90;;;;;;5051236;28;20488;-70
2022/01/28 00:47:36;;;;;;;1999.90;999.90;;;4.80;99.90;;;;;;5052036;28;20520;-69
2022/01/28 00:50:05;;;;;;;1999.90;999.90;;;4.80;99.90;;;;;;5051774;28;20959;-69
2022/01/28 00:52:31;;;;;;;1999.90;999.90;;;4.80;99.90;;;;;;5052049;28;20481;-70
2022/01/28 00:54:58;;;;;;;1999.90;999.90;;;4.80;99.90;;;;;;5051650;28;20524;-70
2022/01/28 00:57:25;;;;;;;1999.90;999.90;;;5.20;99.90;;;;;;5051204;28;20524;-70
2022/01/28 00:59:52;;;;;;;1999.90;999.90;;;4.80;99.90;;;;;;5051661;28;20446;-71
2022/01/28 01:02:19;;;;;;;1999.90;999.90;;;4.80;99.90;;;;;;5052034;28;20442;-70
2022/01/28 01:04:45;;;;;;;1999.90;999.90;;;4.80;99.90;;;;;;5051307;28;20500;-69
2022/01/28 01:07:13;;;;;;;1999.90;999.90;;;4.80;99.90;;;;;;5051593;28;20516;-72
2022/01/28 01:09:40;;;;;;;1999.90;999.90;;;4.80;99.90;;;;;;5051759;28;21199;-69
2022/01/28 01:12:08;;;;;;;1999.90;999.90;;;4.70;99.90;;;;;;5051509;28;20536;-70
2022/01/28 01:14:34;;;;;;;1999.90;999.90;;;4.80;99.90;;;;;;5051452;28;20446;-69
2022/01/28 01:17:13;;;;;;;1999.90;999.90;;;4.80;99.90;;;;;;5050998;28;20889;-70
2022/01/28 01:19:45;;;;;;;1999.90;999.90;;;4.70;99.90;;;;;;5052919;28;20444;-70
2022/01/28 01:22:13;;;;;;;1999.90;999.90;;;4.70;99.90;;;;;;5051144;28;20443;-69
2022/01/28 01:24:49;;;;;;;1999.90;999.90;;;4.70;99.90;;;;;;5051449;28;20454;-69
2022/01/28 01:27:17;;;;;;;1999.90;999.90;;;4.70;99.90;;;;;;5051013;28;20474;-69
2022/01/28 01:29:45;;;;;;;1999.90;999.90;;;4.60;99.90;;;;;;5051361;28;20481;-71
2022/01/28 01:32:15;;;;;;;1999.90;999.90;;;4.60;99.90;;;;;;5050839;28;20462;-72
2022/01/28 01:34:42;;;;;;;1999.90;999.90;;;4.60;99.90;;;;;;5051065;28;20450;-70
2022/01/28 01:37:08;;;;;;;1999.90;999.90;;;4.70;99.90;;;;;;5050945;28;20519;-70
2022/01/28 01:39:38;;;;;;;1999.90;999.90;;;4.70;99.90;;;;;;5051082;28;20486;-70
2022/01/28 01:42:12;;;;;;;1999.90;999.90;;;4.70;99.90;;;;;;5050820;28;20504;-72
2022/01/28 01:45:10;;;;;;;1999.90;999.90;;;4.70;99.90;;;;;;5051102;28;20450;-70
2022/01/28 01:52:57;;;;;;;1999.90;999.90;;;4.70;99.90;;;;;;5050666;28;20467;-70
2022/01/28 01:55:25;;;;;;;1999.90;999.90;;;4.70;99.90;;;;;;5050202;28;20939;-70
2022/01/28 01:57:54;;;;;;;1999.90;999.90;;;4.70;99.90;;;;;;5050685;28;20482;-70
2022/01/28 02:00:20;;;;;;;1999.90;999.90;;;4.70;99.90;;;;;;5051022;28;20450;-70
2022/01/28 02:02:48;;;;;;;1999.90;999.90;;;4.70;99.90;;;;;;5050240;28;20450;-70
2022/01/28 02:05:15;;;;;;;1999.90;999.90;;;4.80;99.90;;;;;;5050593;28;20469;-70
2022/01/28 02:07:45;;;;;;;1999.90;999.90;;;4.80;99.90;;;;;;5050208;28;20881;-70
2022/01/28 02:10:12;;;;;;;1999.90;999.90;;;4.80;99.90;;;;;;5050537;28;20450;-70
2022/01/28 02:12:47;;;;;;;1999.90;999.90;;;4.80;99.90;;;;;;5050415;28;20462;-69
2022/01/28 02:15:14;;;;;;;1999.90;999.90;;;4.80;99.90;;;;;;5051082;28;20449;-69
2022/01/28 02:17:41;;;;;;;1999.90;999.90;;;4.80;99.90;;;;;;5050412;28;20466;-70
2022/01/28 02:20:11;;;;;;;1999.90;999.90;;;4.80;99.90;;;;;;5051019;28;20556;-70
2022/01/28 02:22:40;;;;;;;1999.90;999.90;;;4.90;99.90;;;;;;5050733;28;20583;-70
2022/01/28 02:25:07;;;;;;;1999.90;999.90;;;4.80;99.90;;;;;;5050442;28;20974;-70
2022/01/28 02:27:33;;;;;;;1999.90;999.90;;;4.80;99.90;;;;;;5050197;28;20525;-70
2022/01/28 02:30:00;;;;;;;1999.90;999.90;;;4.70;99.90;;;;;;5050146;28;20458;-69
2022/01/28 02:32:27;;;;;;;1999.90;999.90;;;4.70;99.90;;;;;;5049924;28;20816;-70
2022/01/28 02:34:54;;;;;;;1999.90;999.90;;;4.70;99.90;;;;;;5050162;28;20846;-70
2022/01/28 02:37:22;;;;;;;1999.90;999.90;;;4.70;99.90;;;;;;5050325;28;20561;-70
2022/01/28 02:39:50;;;;;;;1999.90;999.90;;;4.60;99.90;;;;;;5050459;28;20488;-70
2022/01/28 02:42:21;;;;;;;1999.90;999.90;;;4.60;99.90;;;;;;5050501;28;20447;-70
2022/01/28 02:44:51;;;;;;;1999.90;999.90;;;4.60;99.90;;;;;;5049657;28;20493;-67
2022/01/28 02:47:29;;;;;;;1999.90;999.90;;;4.70;99.90;;;;;;5054207;28;20470;-70
2022/01/28 02:49:56;;;;;;;1999.90;999.90;;;4.70;99.90;;;;;;5054525;28;20488;-70
2022/01/28 02:52:36;;;;;;;1999.90;999.90;;;4.70;99.90;;;;;;5054133;28;20504;-70
2022/01/28 02:55:10;;;;;;;1999.90;999.90;;;4.70;99.90;;;;;;5054153;28;20942;-68
2022/01/28 02:57:40;;;;;;;1999.90;999.90;;;4.80;99.90;;;;;;5053719;28;20523;-70
2022/01/28 03:00:07;;;;;;;1999.90;999.90;;;4.80;99.90;;;;;;5053923;28;21020;-71
2022/01/28 03:02:34;;;;;;;1999.90;999.90;;;4.80;99.90;;;;;;5053685;28;20488;-70
2022/01/28 03:05:24;;;;;;;1999.90;999.90;;;4.80;99.90;;;;;;5034447;28;20489;-70
2022/01/28 03:07:50;;;;;;;1999.90;999.90;;;4.80;99.90;;;;;;5047422;28;20478;-69
2022/01/28 03:10:32;;;;;;;1999.90;999.90;;;4.80;99.90;;;;;;5054206;28;20496;-72
2022/01/28 03:13:17;;;;;;;1999.90;999.90;;;4.70;99.90;;;;;;5053568;28;20453;-69
2022/01/28 03:15:51;;;;;;;1999.90;999.90;;;4.70;99.90;;;;;;5054223;28;20537;-69
2022/01/28 03:18:21;;;;;;;1999.90;999.90;;;4.70;99.90;;;;;;5053472;28;20486;-70
2022/01/28 03:20:59;;;;;;;1999.90;999.90;;;4.70;99.90;;;;;;5053719;28;20459;-71
2022/01/28 03:23:27;;;;;;;1999.90;999.90;;;4.70;99.90;;;;;;5053355;28;20446;-71
2022/01/28 03:25:55;;;;;;;1999.90;999.90;;;4.70;99.90;;;;;;5054157;28;20500;-70
2022/01/28 03:28:21;;;;;;;1999.90;999.90;;;4.70;99.90;;;;;;5053379;28;20462;-70
2022/01/28 03:30:48;;;;;;;1999.90;999.90;;;4.60;99.90;;;;;;5053291;28;20547;-69
2022/01/28 03:33:15;;;;;;;1999.90;999.90;;;4.50;99.90;;;;;;5053315;28;20455;-70
2022/01/28 03:35:41;;;;;;;1999.90;999.90;;;4.60;99.90;;;;;;5053632;28;20507;-69
2022/01/28 03:38:12;;;;;;;1999.90;999.90;;;4.50;99.90;;;;;;5053125;28;21002;-69
2022/01/28 03:40:39;;;;;;;1999.90;999.90;;;4.60;99.90;;;;;;5053068;28;20450;-68
2022/01/28 03:43:08;;;;;;;1999.90;999.90;;;4.60;99.90;;;;;;5053169;28;20450;-70
2022/01/28 03:45:35;;;;;;;1999.90;999.90;;;4.60;99.90;;;;;;5052819;28;20831;-70
2022/01/28 03:48:02;;;;;;;1999.90;999.90;;;4.60;99.90;;;;;;5053105;28;20990;-70
2022/01/28 03:50:32;;;;;;;1999.90;999.90;;;4.60;99.90;;;;;;5053091;28;20447;-70
2022/01/28 03:52:59;;;;;;;1999.90;999.90;;;4.60;99.90;;;;;;5053223;28;20451;-70
2022/01/28 03:55:26;;;;;;;1999.90;999.90;;;4.70;99.90;;;;;;5053065;28;20517;-70
2022/01/28 03:57:52;;;;;;;1999.90;999.90;;;4.70;99.90;;;;;;5051905;28;20520;-70
2022/01/28 04:00:25;;;;;;;1999.90;999.90;;;4.70;99.90;;;;;;5051815;28;20478;-70
2022/01/28 04:03:05;;;;;;;1999.90;999.90;;;4.60;99.90;;;;;;5053382;28;20816;-69
2022/01/28 04:11:25;;;;;;;1999.90;999.90;;;4.60;99.90;;;;;;5052717;28;20438;-70
2022/01/28 04:11:28;;;;;;;1999.90;999.90;;;4.50;99.90;;;;;;5051928;28;20417;-71
2022/01/28 04:13:57;;;;;;;1999.90;999.90;;;4.50;99.90;;;;;;5052748;28;20835;-70
2022/01/28 04:17:18;;;;;;;1999.90;999.90;;;4.50;99.90;;;;;;5052508;28;20454;-70
2022/01/28 04:19:19;;;;;;;1999.90;999.90;;;4.50;99.90;;;;;;5052068;28;20496;-70
2022/01/28 04:21:45;;;;;;;1999.90;999.90;;;4.50;99.90;;;;;;5052713;28;20501;-70
2022/01/28 04:24:12;;;;;;;1999.90;999.90;;;4.60;99.90;;;;;;5052183;28;20446;-70
2022/01/28 04:26:39;;;;;;;1999.90;999.90;;;4.60;99.90;;;;;;5052919;28;20466;-69
2022/01/28 04:29:07;;;;;;;1999.90;999.90;;;4.50;99.90;;;;;;5052088;28;21024;-70
2022/01/28 04:31:36;;;;;;;1999.90;999.90;;;4.50;99.90;;;;;;5052388;28;20450;-70
2022/01/28 04:34:03;;;;;;;1999.90;999.90;;;4.50;99.90;;;;;;5052202;28;20458;-69
2022/01/28 04:36:34;;;;;;;1999.90;999.90;;;4.50;99.90;;;;;;5052183;28;20474;-71
2022/01/28 04:39:09;;;;;;;1999.90;999.90;;;4.50;99.90;;;;;;5052672;28;20506;-70
2022/01/28 04:41:44;;;;;;;1999.90;999.90;;;4.60;99.90;;;;;;5051979;28;20450;-68
2022/01/28 04:44:17;;;;;;;1999.90;999.90;;;4.60;99.90;;;;;;5052012;28;20500;-70
2022/01/28 04:46:51;;;;;;;1999.90;999.90;;;4.60;99.90;;;;;;5051763;28;20474;-70
2022/01/28 04:49:23;;;;;;;1999.90;999.90;;;4.70;99.90;;;;;;5052462;28;20453;-69
2022/01/28 04:52:11;;;;;;;1999.90;999.90;;;4.70;99.90;;;;;;5050395;28;20500;-70
2022/01/28 04:54:54;;;;;;;1999.90;999.90;;;4.70;99.90;;;;;;5051603;28;20447;-69
2022/01/28 04:57:31;;;;;;;1999.90;999.90;;;4.70;99.90;;;;;;5051293;28;20929;-71
2022/01/28 05:00:08;;;;;;;1999.90;999.90;;;4.60;99.90;;;;;;5051774;28;20466;-70
2022/01/28 05:02:56;;;;;;;1999.90;999.90;;;4.60;99.90;;;;;;5032662;28;20470;-70
2022/01/28 05:08:39;;;;;;;1999.90;999.90;;;4.50;99.90;;;;;;5033690;28;20829;-70
2022/01/28 05:11:44;;;;;;;1999.90;999.90;;;4.50;99.90;;;;;;5051394;28;20855;-70
2022/01/28 05:14:40;;;;;;;1999.90;999.90;;;4.50;99.90;;;;;;5032000;28;20446;-70
2022/01/28 05:28:16;;;;;;;1999.90;999.90;;;4.50;99.90;;;;;;5032985;28;20453;-70
2022/01/28 05:30:42;;;;;;;1999.90;999.90;;;4.50;99.90;;;;;;5050924;28;20815;-70
2022/01/28 05:33:09;;;;;;;1999.90;999.90;;;4.60;99.90;;;;;;5052186;28;20476;-70
2022/01/28 05:35:37;;;;;;;1999.90;999.90;;;4.60;99.90;;;;;;5051650;28;20512;-71
2022/01/28 05:38:04;;;;;;;1999.90;999.90;;;4.60;99.90;;;;;;5051168;28;20531;-72
2022/01/28 05:40:30;;;;;;;1999.90;999.90;;;4.60;99.90;;;;;;5050565;28;20901;-69
2022/01/28 05:42:57;;;;;;;1999.90;999.90;;;4.60;99.90;;;;;;5051359;28;20516;-70
2022/01/28 05:45:24;;;;;;;1999.90;999.90;;;4.60;99.90;;;;;;5050420;28;20975;-70
2022/01/28 05:47:50;;;;;;;1999.90;999.90;;;4.50;99.90;;;;;;5050705;28;20474;-70
2022/01/28 05:50:17;;;;;;;1999.90;999.90;;;4.50;99.90;;;;;;5051270;28;20442;-70
2022/01/28 05:52:45;;;;;;;1999.90;999.90;;;4.50;99.90;;;;;;5050600;28;20451;-70
2022/01/28 05:55:12;;;;;;;1999.90;999.90;;;4.50;99.90;;;;;;5050785;28;20462;-70
2022/01/28 05:57:38;;;;;;;1999.90;999.90;;;4.50;99.90;;;;;;5050662;28;20474;-71
2022/01/28 06:00:06;;;;;;;1999.90;999.90;;;4.50;99.90;;;;;;5050833;28;20478;-71
2022/01/28 06:02:33;;;;;;;1999.90;999.90;;;4.50;99.90;;;;;;5050396;28;20455;-70
2022/01/28 06:05:00;;;;;;;1999.90;999.90;;;4.50;99.90;;;;;;5050826;28;20442;-70
2022/01/28 06:07:26;;;;;;;1999.90;999.90;;;4.50;99.90;;;;;;5050632;28;20474;-69
2022/01/28 06:09:54;;;;;;;1999.90;999.90;;;4.50;99.90;;;;;;5050454;28;20446;-69
2022/01/28 06:12:21;;;;;;;1999.90;999.90;;;4.50;99.90;;;;;;5050761;28;20504;-69
2022/01/28 06:14:47;;;;;;;1999.90;999.90;;;4.40;99.90;;;;;;5050950;28;20560;-69
2022/01/28 06:17:14;;;;;;;1999.90;999.90;;;4.30;99.90;;;;;;5050802;28;20871;-68
2022/01/28 06:19:41;;;;;;;1999.90;999.90;;;4.20;99.90;;;;;;5050938;28;20474;-69
2022/01/28 06:22:07;;;;;;;1999.90;999.90;;;4.20;99.90;;;;;;5054156;28;20438;-69
2022/01/28 06:24:34;;;;;;;1999.90;999.90;;;4.20;99.90;;;;;;5054549;28;20511;-69
2022/01/28 06:27:02;;;;;;;1999.90;999.90;;;4.30;99.90;;;;;;5054599;28;20462;-69
2022/01/28 06:29:29;;;;;;;1999.90;999.90;;;4.30;99.90;;;;;;5034920;28;21025;-68
2022/01/28 06:31:55;;;;;;;1999.90;999.90;;;4.30;99.90;;;;;;5038403;28;20446;-69
2022/01/28 06:34:22;;;;;;;1999.90;999.90;;;4.30;99.90;;;;;;5055084;28;20507;-70
2022/01/28 06:36:49;;;;;;;1999.90;999.90;;;4.40;99.90;;;;;;5054248;28;20474;-71
2022/01/28 06:39:16;;;;;;;1999.90;999.90;;;4.40;99.90;;;;;;5052272;28;20478;-70
2022/01/28 06:41:42;;;;;;;1999.90;999.90;;;4.30;99.90;;;;;;5053159;28;20458;-70
2022/01/28 06:44:11;;;;;;;1999.90;999.90;;;4.30;99.90;;;;;;5053401;28;20931;-71
2022/01/28 06:46:38;;;;;;;1999.90;999.90;;;4.40;99.90;;;;;;5053622;28;20469;-70
2022/01/28 06:49:05;;;;;;;1999.90;999.90;;;4.40;99.90;;;;;;5053236;28;20453;-70
2022/01/28 06:51:34;;;;;;;1999.90;999.90;;;4.40;99.90;;;;;;5053910;28;20860;-70
2022/01/28 06:54:01;;;;;;;1999.90;999.90;;;4.30;99.90;;;;;;5053512;28;20447;-70
2022/01/28 06:56:28;;;;;;;1999.90;999.90;;;4.30;99.90;;;;;;5054708;28;20458;-71
2022/01/28 06:58:54;;;;;;;1999.90;999.90;;;4.30;99.90;;;;;;5054031;28;20454;-71
2022/01/28 07:01:22;;;;;;;1999.90;999.90;;;4.30;99.90;;;;;;5053802;28;20985;-71
2022/01/28 07:03:49;;;;;;;1999.90;999.90;;;4.30;99.90;;;;;;5053504;28;20938;-70
2022/01/28 07:06:15;;;;;;;1999.90;999.90;;;4.30;99.90;;;;;;5054442;28;20446;-70
2022/01/28 07:08:42;;;;;;;1999.90;999.90;;;4.40;99.90;;;;;;5053610;28;20450;-70
2022/01/28 07:11:09;;;;;;;1999.90;999.90;;;4.40;99.90;;;;;;5054068;28;20813;-70
2022/01/28 07:13:36;;;;;;;1999.90;999.90;;;4.40;99.90;;;;;;5053529;28;20504;-70
2022/01/28 07:16:03;;;;;;;1999.90;999.90;;;4.40;99.90;;;;;;5053920;28;20454;-68
2022/01/28 07:18:31;;;;;;;1999.90;999.90;;;4.40;99.90;;;;;;5053337;28;20815;-71
2022/01/28 07:20:57;;;;;;;1999.90;999.90;;;4.40;99.90;;;;;;5053956;28;20474;-71
2022/01/28 07:23:24;;;;;;;1999.90;999.90;;;4.40;99.90;;;;;;5053053;28;20458;-70
2022/01/28 07:25:51;;;;;;;1999.90;999.90;;;4.40;99.90;;;;;;5054087;28;20446;-70
2022/01/28 07:28:18;;;;;;;1999.90;999.90;;;4.30;99.90;;;;;;5052935;28;20994;-70
2022/01/28 07:30:44;;;;;;;1999.90;999.90;;;4.30;99.90;;;;;;5053426;28;20453;-71
2022/01/28 07:33:11;;;;;;;1999.90;999.90;;;4.30;99.90;;;;;;5053436;28;20450;-70
2022/01/28 07:35:39;;;;;;;1999.90;999.90;;;4.20;99.90;;;;;;5053968;28;20450;-70
2022/01/28 07:38:06;;;;;;;1999.90;999.90;;;4.10;99.90;;;;;;5053105;28;20498;-70
2022/01/28 07:40:33;;;;;;;1999.90;999.90;;;4.10;99.90;;;;;;5053085;28;20529;-71
2022/01/28 07:43:00;;;;;;;1999.90;999.90;;;4.00;99.90;;;;;;5051872;28;20566;-69
2022/01/28 07:45:27;;;;;;;1999.90;999.90;;;4.10;99.90;;;;;;5052780;28;20492;-70
2022/01/28 07:47:53;;;;;;;1999.90;999.90;;;4.10;99.90;;;;;;5053176;28;20544;-70
2022/01/28 07:50:20;;;;;;;1999.90;999.90;;;4.10;99.90;;;;;;5052085;28;20454;-71
2022/01/28 07:52:48;;;;;;;1999.90;999.90;;;4.10;99.90;;;;;;5053558;28;20838;-70
2022/01/28 07:55:15;;;;;;;1999.90;999.90;;;4.10;99.90;;;;;;5051921;28;20461;-70
2022/01/28 07:57:43;;;;;;;1999.90;999.90;;;4.10;99.90;;;;;;5052881;28;20470;-70
2022/01/28 08:00:12;;;;;;;1999.90;999.90;;;4.20;99.90;;;;;;5052876;28;20482;-70
2022/01/28 08:02:38;;;;;;;1999.90;999.90;;;4.30;99.90;;;;;;5053106;28;20446;-71
2022/01/28 08:05:06;;;;;;;1999.90;999.90;;;4.30;99.90;;;;;;5052337;28;20450;-70
2022/01/28 08:07:32;;;;;;;1999.90;999.90;;;4.40;99.90;;;;;;5052748;28;20986;-71
2022/01/28 08:10:00;;;;;;;1999.90;999.90;;;4.30;99.90;;;;;;5051967;28;20451;-73
2022/01/28 08:12:27;;;;;;;1999.90;999.90;;;4.40;99.90;;;;;;5055885;28;20454;-70
2022/01/28 08:14:54;;;;;;;1999.90;999.90;;;4.40;99.90;;;;;;5051955;28;20443;-70
2022/01/28 08:17:20;;;;;;;1999.90;999.90;;;4.40;99.90;;;;;;5053524;28;20474;-69
2022/01/28 08:19:47;;;;;;;1999.90;999.90;;;4.40;99.90;;;;;;5052291;28;20481;-73
2022/01/28 08:22:14;;;;;;;1999.90;999.90;;;4.40;99.90;;;;;;5038582;28;20473;-70
2022/01/28 08:24:40;;;;;;;1999.90;999.90;;;4.40;99.90;;;;;;5033451;28;21018;-71
2022/01/28 08:27:08;;;;;;;1999.90;999.90;;;4.40;99.90;;;;;;5052645;28;20525;-71
2022/01/28 08:29:35;;;;;;;1999.90;999.90;;;4.40;99.90;;;;;;5052447;28;20462;-70
2022/01/28 08:32:01;;;;;;;1999.90;999.90;;;4.50;99.90;;;;;;5052317;28;20508;-70
2022/01/28 08:34:28;;;;;;;1999.90;999.90;;;4.50;99.90;;;;;;5052193;28;21012;-70
2022/01/28 08:36:55;;;;;;;1999.90;999.90;;;4.50;99.90;;;;;;5051686;28;20474;-70
2022/01/28 08:39:24;;;;;;;1999.90;999.90;;;4.50;99.90;;;;;;5052085;28;20507;-71
2022/01/28 08:41:51;;;;;;;1999.90;999.90;;;4.50;99.90;;;;;;5051127;28;20509;-71
2022/01/28 08:44:19;;;;;;;1999.90;999.90;;;4.60;99.90;;;;;;5051765;28;20446;-70
2022/01/28 08:46:45;;;;;;;1999.90;999.90;;;4.60;99.90;;;;;;5048160;28;20500;-70
2022/01/28 08:49:12;;;;;;;1999.90;999.90;;;4.60;99.90;;;;;;5049751;28;20462;-71
2022/01/28 08:51:39;;;;;;;1999.90;999.90;;;4.60;99.90;;;;;;5051648;28;20508;-71
2022/01/28 08:54:06;;;;;;;1999.90;999.90;;;4.70;99.90;;;;;;5052123;28;20503;-71
2022/01/28 08:56:32;;;;;;;1999.90;999.90;;;4.70;99.90;;;;;;5051934;28;20470;-69
2022/01/28 08:58:59;;;;;;;1999.90;999.90;;;4.70;99.90;;;;;;5052161;28;20458;-70
2022/01/28 09:01:28;;;;;;;1999.90;999.90;;;4.70;99.90;;;;;;5050902;28;20533;-70
2022/01/28 09:03:55;;;;;;;1999.90;999.90;;;4.70;99.90;;;;;;5052030;28;20461;-71
2022/01/28 09:06:22;;;;;;;1999.90;999.90;;;4.70;99.90;;;;;;5051495;28;20476;-70
2022/01/28 09:08:49;;;;;;;1999.90;999.90;;;4.80;99.90;;;;;;5050855;28;20446;-72
2022/01/28 09:11:34;;;;;;;1999.90;999.90;;;4.80;99.90;;;;;;5051542;28;20462;-72
2022/01/28 09:14:01;;;;;;;1999.90;999.90;;;4.80;99.90;;;;;;5031997;28;20447;-70
2022/01/28 09:16:29;;;;;;;1999.90;999.90;;;4.80;99.90;;;;;;5041627;28;20466;-70
2022/01/28 09:18:56;;;;;;;1999.90;999.90;;;4.80;99.90;;;;;;5051492;28;20488;-70
2022/01/28 09:21:23;;;;;;;1999.90;999.90;;;4.90;99.90;;;;;;5050878;28;20485;-71
2022/01/28 09:23:49;;;;;;;1999.90;999.90;;;4.90;99.90;;;;;;5051300;28;20450;-70
2022/01/28 09:26:16;;;;;;;1999.90;999.90;;;4.90;99.90;;;;;;5050562;28;20969;-71
2022/01/28 09:28:43;;;;;;;1999.90;999.90;;;4.90;99.90;;;;;;5050448;28;20560;-70
2022/01/28 09:31:09;;;;;;;1999.90;999.90;;;4.90;99.90;;;;;;5050845;28;20458;-71
2022/01/28 09:33:37;;;;;;;1999.90;999.90;;;4.90;99.90;;;;;;5050970;28;20523;-70
2022/01/28 09:36:06;;;;;;;1999.90;999.90;;;5.00;99.90;;;;;;5050778;28;20939;-71
2022/01/28 09:38:32;;;;;;;1999.90;999.90;;;5.00;99.90;;;;;;5051057;28;20466;-70
2022/01/28 09:41:01;;;;;;;1999.90;999.90;;;5.00;99.90;;;;;;5050366;28;20528;-70
2022/01/28 09:43:28;;;;;;;1999.90;999.90;;;5.00;99.90;;;;;;5050197;28;20442;-72
2022/01/28 09:45:55;;;;;;;1999.90;999.90;;;5.10;99.90;;;;;;5050294;28;20446;-70
2022/01/28 09:48:22;;;;;;;1999.90;999.90;;;5.10;99.90;;;;;;5050748;28;20919;-71
2022/01/28 09:50:51;;;;;;;1999.90;999.90;;;5.00;99.90;;;;;;5050885;28;20469;-70
2022/01/28 09:53:18;;;;;;;1999.90;999.90;;;5.10;99.90;;;;;;5051053;28;20496;-70
2022/01/28 09:55:47;;;;;;;1999.90;999.90;;;5.00;99.90;;;;;;5051212;28;20886;-70
2022/01/28 09:58:15;;;;;;;1999.90;999.90;;;5.10;99.90;;;;;;5051020;28;20466;-71
2022/01/28 10:00:42;;;;;;;1999.90;999.90;;;5.10;99.90;;;;;;5050699;28;20474;-71
2022/01/28 10:03:10;;;;;;;1999.90;999.90;;;5.10;99.90;;;;;;5050854;28;20869;-69
2022/01/28 10:05:41;;;;;;;1999.90;999.90;;;5.20;99.90;;;;;;5050992;28;20445;-71
2022/01/28 10:08:14;;;;;;;1999.90;999.90;;;5.20;99.90;;;;;;5051347;28;20466;-70
2022/01/28 10:10:51;;;;;;;1999.90;999.90;;;5.30;99.90;;;;;;5050668;28;20431;-71
2022/01/28 10:13:23;;;;;;;1999.90;999.90;;;5.30;99.90;;;;;;5050317;28;20460;-70
2022/01/28 10:16:01;;;;;;;1999.90;999.90;;;5.30;99.90;;;;;;5050877;28;20454;-70
2022/01/28 10:18:44;;;;;;;1999.90;999.90;;;5.40;99.90;;;;;;5050334;28;20544;-70
2022/01/28 10:21:21;;;;;;;1999.90;999.90;;;5.50;99.90;;;;;;5049974;28;20479;-73
2022/01/28 10:24:13;;;;;;;1999.90;999.90;;;5.50;99.90;;;;;;5049732;28;20984;-70
2022/01/28 10:26:42;;;;;;;1999.90;999.90;;;5.50;99.90;;;;;;5049317;28;20465;-69
2022/01/28 10:29:12;;;;;;;1999.90;999.90;;;5.40;99.90;;;;;;5050416;28;21012;-71
2022/01/28 10:31:41;;;;;;;1999.90;999.90;;;5.50;99.90;;;;;;5050464;28;20487;-70
2022/01/28 10:34:28;;;;;;;1999.90;999.90;;;5.50;99.90;;;;;;5049884;28;21021;-72
2022/01/28 10:37:15;;;;;;;1999.90;999.90;;;5.50;99.90;;;;;;5038325;28;20458;-70
2022/01/28 10:39:46;;;;;;;1999.90;999.90;;;5.50;99.90;;;;;;5050540;28;20439;-70
2022/01/28 10:42:15;;;;;;;1999.90;999.90;;;5.50;99.90;;;;;;5050637;28;20493;-70
2022/01/28 10:44:58;;;;;;;1999.90;999.90;;;5.60;99.90;;;;;;5050316;28;20512;-70
2022/01/28 10:47:33;;;;;;;1999.90;999.90;;;5.60;99.90;;;;;;5049906;28;20474;-70
2022/01/28 10:50:01;;;;;;;1999.90;999.90;;;5.60;99.90;;;;;;5050588;28;20469;-69
2022/01/28 10:52:32;;;;;;;1999.90;999.90;;;5.60;99.90;;;;;;5050640;28;20443;-70
2022/01/28 10:55:02;;;;;;;1999.90;999.90;;;5.70;99.90;;;;;;5049649;28;20455;-69
2022/01/28 10:57:30;;;;;;;1999.90;999.90;;;5.70;99.90;;;;;;5049186;28;20524;-70
2022/01/28 10:59:57;;;;;;;1999.90;999.90;;;5.70;99.90;;;;;;5050542;28;20533;-70
2022/01/28 11:02:25;;;;;;;1999.90;999.90;;;5.80;99.90;;;;;;5050513;28;21029;-72
2022/01/28 11:04:55;;;;;;;1999.90;999.90;;;5.90;99.90;;;;;;5050722;28;20489;-70
2022/01/28 11:07:22;;;;;;;1999.90;999.90;;;5.80;99.90;;;;;;5053264;28;20501;-70
2022/01/28 11:09:49;;;;;;;1999.90;999.90;;;5.80;99.90;;;;;;5053595;28;20958;-72
2022/01/28 11:12:17;;;;;;;1999.90;999.90;;;5.80;99.90;;;;;;5053305;28;20458;-70
2022/01/28 11:14:44;;;;;;;1999.90;999.90;;;5.80;99.90;;;;;;5053742;28;20972;-71
2022/01/28 11:17:12;;;;;;;1999.90;999.90;;;5.90;99.90;;;;;;5054405;28;20508;-70
2022/01/28 11:19:40;;;;;;;1999.90;999.90;;;6.00;99.90;;;;;;5052909;28;20507;-72
2022/01/28 11:22:37;;;;;;;1999.90;999.90;;;6.00;99.90;;;;;;5053774;28;20912;-70
2022/01/28 11:25:16;;;;;;;1999.90;999.90;;;5.90;99.90;;;;;;5053544;28;20461;-70
2022/01/28 11:27:48;;;;;;;1999.90;999.90;;;5.90;99.90;;;;;;5052867;28;20480;-70
2022/01/28 11:30:17;;;;;;;1999.90;999.90;;;6.00;99.90;;;;;;5053505;28;20462;-70
2022/01/28 11:33:00;;;;;;;1999.90;999.90;;;6.00;99.90;;;;;;5051882;28;20439;-71
2022/01/28 11:35:32;;;;;;;1999.90;999.90;;;6.10;99.90;;;;;;5054017;28;20436;-70
2022/01/28 11:38:04;;;;;;;1999.90;999.90;;;6.10;99.90;;;;;;5053632;28;20474;-70
2022/01/28 11:40:44;;;;;;;1999.90;999.90;;;6.10;99.90;;;;;;5052970;28;21029;-70
2022/01/28 11:43:30;;;;;;;1999.90;999.90;;;6.20;99.90;;;;;;5051160;28;20958;-70
2022/01/28 11:46:07;;;;;;;1999.90;999.90;;;6.10;99.90;;;;;;5052081;28;20430;-72
2022/01/28 11:49:17;;;;;;;1999.90;999.90;;;6.10;99.90;;;;;;5053949;28;20453;-70
2022/01/28 11:51:44;;;;;;;1999.90;999.90;;;6.20;99.90;;;;;;5053402;28;20454;-70
2022/01/28 11:54:12;;;;;;;1999.90;999.90;;;6.10;99.90;;;;;;5054522;28;20456;-70
2022/01/28 11:56:41;;;;;;;1999.90;999.90;;;6.20;99.90;;;;;;5052458;28;20462;-70
2022/01/28 11:59:10;;;;;;;1999.90;999.90;;;6.20;99.90;;;;;;5053427;28;20438;-70
2022/01/28 12:02:13;;;;;;;1999.90;999.90;;;6.20;99.90;;;;;;5052476;28;20471;-70
2022/01/28 12:04:41;;;;;;;1999.90;999.90;;;6.20;99.90;;;;;;5052995;28;20806;-70
2022/01/28 12:07:13;;;;;;;1999.90;999.90;;;6.30;99.90;;;;;;5053046;28;20463;-70
2022/01/28 12:09:41;;;;;;;1999.90;999.90;;;6.30;99.90;;;;;;5053131;28;20454;-70
2022/01/28 12:12:11;;;;;;;1999.90;999.90;;;6.30;99.90;;;;;;5047916;28;20450;-70
2022/01/28 12:15:13;;;;;;;1999.90;999.90;;;6.50;99.90;;;;;;5053561;28;20550;-69
2022/01/28 12:17:45;;;;;;;1999.90;999.90;;;6.50;99.90;;;;;;5052215;28;20474;-72
2022/01/28 12:20:35;;;;;;;1999.90;999.90;;;6.60;99.90;;;;;;5052808;28;20430;-70
2022/01/28 12:23:20;;;;;;;1999.90;999.90;;;6.80;99.90;;;;;;5053232;28;20466;-73
2022/01/28 12:25:49;;;;;;;1999.90;999.90;;;6.90;99.90;;;;;;5042384;28;20442;-70
2022/01/28 12:28:17;;;;;;;1999.90;999.90;;;6.80;99.90;;;;;;5052100;28;20474;-70
2022/01/28 12:30:46;;;;;;;1999.90;999.90;;;6.80;99.90;;;;;;5052269;28;20462;-70
2022/01/28 12:33:14;;;;;;;1999.90;999.90;;;6.50;99.90;;;;;;5052203;28;20446;-70
2022/01/28 12:35:42;;;;;;;1999.90;999.90;;;6.30;99.90;;;;;;5052403;28;20492;-70
2022/01/28 12:38:12;;;;;;;1999.90;999.90;;;6.40;99.90;;;;;;5052582;28;21076;-70
2022/01/28 12:40:46;;;;;;;1999.90;999.90;;;6.60;99.90;;;;;;5052165;28;20482;-70
2022/01/28 12:43:17;;;;;;;1999.90;999.90;;;6.80;99.90;;;;;;5052160;28;20452;-70
2022/01/28 12:46:00;;;;;;;1999.90;999.90;;;6.70;99.90;;;;;;5052104;28;20491;-72
2022/01/28 12:48:27;;;;;;;1999.90;999.90;;;6.80;99.90;;;;;;5052079;28;21050;-71
2022/01/28 12:50:54;;;;;;;1999.90;999.90;;;6.80;99.90;;;;;;5052549;28;20446;-70
2022/01/28 12:53:30;;;;;;;1999.90;999.90;;;7.00;99.90;;;;;;5052375;28;20454;-70
2022/01/28 12:55:57;;;;;;;1999.90;999.90;;;6.90;99.90;;;;;;5052373;28;20446;-70
2022/01/28 12:58:37;;;;;;;1999.90;999.90;;;6.80;99.90;;;;;;5047633;28;20886;-70
2022/01/28 13:01:07;;;;;;;1999.90;999.90;;;6.70;99.90;;;;;;5046038;28;21015;-70
2022/01/28 13:03:38;;;;;;;1999.90;999.90;;;6.60;99.90;;;;;;5051688;28;20503;-71
2022/01/28 13:06:26;;;;;;;1999.90;999.90;;;6.60;99.90;;;;;;5052318;28;20839;-70
2022/01/28 13:08:54;;;;;;;1999.90;999.90;;;6.40;99.90;;;;;;5052145;28;20462;-70